地図

経路データ

SID SEASON NUMBER BASIN SUBBASIN NAME ISO_TIME NATURE LAT LON WMO_WIND WMO_PRES WMO_AGENCY TRACK_TYPE DIST2LAND LANDFALL IFLAG USA_AGENCY USA_ATCF_ID USA_LAT USA_LON USA_RECORD USA_STATUS USA_WIND USA_PRES USA_SSHS USA_R34_NE USA_R34_SE USA_R34_SW USA_R34_NW USA_R50_NE USA_R50_SE USA_R50_SW USA_R50_NW USA_R64_NE USA_R64_SE USA_R64_SW USA_R64_NW USA_POCI USA_ROCI USA_RMW USA_EYE TOKYO_LAT TOKYO_LON TOKYO_GRADE TOKYO_WIND TOKYO_PRES TOKYO_R50_DIR TOKYO_R50_LONG TOKYO_R50_SHORT TOKYO_R30_DIR TOKYO_R30_LONG TOKYO_R30_SHORT TOKYO_LAND CMA_LAT CMA_LON CMA_CAT CMA_WIND CMA_PRES HKO_LAT HKO_LON HKO_CAT HKO_WIND HKO_PRES NEWDELHI_LAT NEWDELHI_LON NEWDELHI_GRADE NEWDELHI_WIND NEWDELHI_PRES NEWDELHI_CI NEWDELHI_DP NEWDELHI_POCI REUNION_LAT REUNION_LON REUNION_TYPE REUNION_WIND REUNION_PRES REUNION_TNUM REUNION_CI REUNION_RMW REUNION_R34_NE REUNION_R34_SE REUNION_R34_SW REUNION_R34_NW REUNION_R50_NE REUNION_R50_SE REUNION_R50_SW REUNION_R50_NW REUNION_R64_NE REUNION_R64_SE REUNION_R64_SW REUNION_R64_NW BOM_LAT BOM_LON BOM_TYPE BOM_WIND BOM_PRES BOM_TNUM BOM_CI BOM_RMW BOM_R34_NE BOM_R34_SE BOM_R34_SW BOM_R34_NW BOM_R50_NE BOM_R50_SE BOM_R50_SW BOM_R50_NW BOM_R64_NE BOM_R64_SE BOM_R64_SW BOM_R64_NW BOM_ROCI BOM_POCI BOM_EYE BOM_POS_METHOD BOM_PRES_METHOD NADI_LAT NADI_LON NADI_CAT NADI_WIND NADI_PRES WELLINGTON_LAT WELLINGTON_LON WELLINGTON_WIND WELLINGTON_PRES DS824_LAT DS824_LON DS824_STAGE DS824_WIND DS824_PRES TD9636_LAT TD9636_LON TD9636_STAGE TD9636_WIND TD9636_PRES TD9635_LAT TD9635_LON TD9635_WIND TD9635_PRES TD9635_ROCI NEUMANN_LAT NEUMANN_LON NEUMANN_CLASS NEUMANN_WIND NEUMANN_PRES MLC_LAT MLC_LON MLC_CLASS MLC_WIND MLC_PRES USA_GUST BOM_GUST BOM_GUST_PER REUNION_GUST REUNION_GUST_PER USA_SEAHGT USA_SEARAD_NE USA_SEARAD_SE USA_SEARAD_SW USA_SEARAD_NW STORM_SPEED STORM_DIR
1953242N26279 1953 49 NA NA NOT_NAMED 1953-08-29 18:00:00 TS 26.3000 -80.9000 25 1007 hurdat_atl main 0 0 O_____________ hurdat_atl AL051953 26.3000 -80.9000 TD 25 1007 -1 17 67
1953242N26279 1953 49 NA NA NOT_NAMED 1953-08-29 21:00:00 TS 26.6315 -80.0365 main 9 9 P_____________ AL051953 26.6315 -80.0365 TD 27 -1 16 67
1953242N26279 1953 49 NA NA NOT_NAMED 1953-08-30 00:00:00 TS 26.9000 -79.3000 30 hurdat_atl main 70 70 O_____________ hurdat_atl AL051953 26.9000 -79.3000 TD 30 -1 12 69
1953242N26279 1953 49 NA NA NOT_NAMED 1953-08-30 03:00:00 TS 27.0718 -78.7819 main 123 123 P_____________ AL051953 27.0718 -78.7819 TD 30 -1 9 69
1953242N26279 1953 49 NA NA NOT_NAMED 1953-08-30 06:00:00 TS 27.2000 -78.4000 30 hurdat_atl main 164 164 O_____________ hurdat_atl AL051953 27.2000 -78.4000 TD 30 -1 8 68
1953242N26279 1953 49 NA NA NOT_NAMED 1953-08-30 09:00:00 TS 27.3500 -77.9975 main 205 205 P_____________ AL051953 27.3500 -77.9975 TD 30 -1 7 64
1953242N26279 1953 49 NA NA NOT_NAMED 1953-08-30 12:00:00 TS 27.5000 -77.7000 30 hurdat_atl main 240 240 O_____________ hurdat_atl AL051953 27.5000 -77.7000 TD 30 -1 5 54
1953242N26279 1953 49 NA NA NOT_NAMED 1953-08-30 15:00:00 TS 27.6498 -77.5250 main 262 262 P_____________ AL051953 27.6498 -77.5250 TD 32 -1 3 30
1953242N26279 1953 49 NA NA NOT_NAMED 1953-08-30 18:00:00 TS 27.8000 -77.5000 35 hurdat_atl main 270 266 O_____________ hurdat_atl AL051953 27.8000 -77.5000 TS 35 0 3 344
1953242N26279 1953 49 NA NA NOT_NAMED 1953-08-30 21:00:00 TS 27.9350 -77.6125 main 266 256 P_____________ AL051953 27.9350 -77.6125 TS 35 0 4 319
1953242N26279 1953 49 NA NA NOT_NAMED 1953-08-31 00:00:00 TS 28.1000 -77.8000 35 hurdat_atl main 256 252 O_____________ hurdat_atl AL051953 28.1000 -77.8000 TS 35 0 5 324
1953242N26279 1953 49 NA NA NOT_NAMED 1953-08-31 03:00:00 TS 28.3274 -77.9352 main 254 234 P_____________ AL051953 28.3274 -77.9352 TS 35 0 6 332
1953242N26279 1953 49 NA NA NOT_NAMED 1953-08-31 06:00:00 TS 28.6000 -78.1000 35 hurdat_atl main 234 217 O_____________ hurdat_atl AL051953 28.6000 -78.1000 TS 35 0 6 328
1953242N26279 1953 49 NA NA NOT_NAMED 1953-08-31 09:00:00 TS 28.8774 -78.3203 main 218 200 P_____________ AL051953 28.8774 -78.3203 TS 35 0 7 324
1953242N26279 1953 49 NA NA NOT_NAMED 1953-08-31 12:00:00 TS 29.2000 -78.6000 35 hurdat_atl main 200 191 O_____________ hurdat_atl AL051953 29.2000 -78.6000 TS 35 0 9 323
1953242N26279 1953 49 NA NA NOT_NAMED 1953-08-31 15:00:00 TS 29.5925 -78.9349 main 197 182 P_____________ AL051953 29.5925 -78.9349 TS 35 0 10 323
1953242N26279 1953 49 NA NA NOT_NAMED 1953-08-31 18:00:00 TS 30.0000 -79.3000 35 1008 hurdat_atl main 184 172 O_____________ hurdat_atl AL051953 30.0000 -79.3000 TS 35 1008 0 10 321
1953242N26279 1953 49 NA NA NOT_NAMED 1953-08-31 21:00:00 TS 30.3573 -79.6429 main 175 133 P_____________ AL051953 30.3573 -79.6429 TS 35 0 9 319
1953242N26279 1953 49 NA NA NOT_NAMED 1953-09-01 00:00:00 TS 30.7000 -80.0000 35 hurdat_atl main 133 91 O_____________ hurdat_atl AL051953 30.7000 -80.0000 TS 35 0 9 317
1953242N26279 1953 49 NA NA NOT_NAMED 1953-09-01 03:00:00 TS 31.0424 -80.3854 main 91 43 P_____________ AL051953 31.0424 -80.3854 TS 32 -1 10 316
1953242N26279 1953 49 NA NA NOT_NAMED 1953-09-01 06:00:00 TS 31.4000 -80.8000 30 hurdat_atl main 43 0 O_____________ hurdat_atl AL051953 31.4000 -80.8000 TD 30 -1 11 318
1953242N26279 1953 49 NA NA NOT_NAMED 1953-09-01 09:00:00 TS 31.8297 -81.2272 main 0 0 P_____________ AL051953 31.8297 -81.2272 TD 30 -1 11 316
1953242N26279 1953 49 NA NA NOT_NAMED 1953-09-01 12:00:00 TS 32.2000 -81.7000 30 hurdat_atl main 0 0 O_____________ hurdat_atl AL051953 32.2000 -81.7000 TD 30 -1 10 304
1953242N26279 1953 49 NA NA NOT_NAMED 1953-09-01 15:00:00 TS 32.4031 -82.2327 main 0 0 P_____________ AL051953 32.4031 -82.2327 TD 27 -1 10 288
1953242N26279 1953 49 NA NA NOT_NAMED 1953-09-01 18:00:00 TS 32.5000 -82.8000 25 hurdat_atl main 0 O_____________ hurdat_atl AL051953 32.5000 -82.8000 TD 25 -1 10 281

IBTrACS Databaseについて

本データベースは、米国NOAAが公開する1842年以降の世界の熱帯低気圧のベストトラックデータアーカイブInternational Best Track Archive for Climate Stewardship (IBTrACS)を、ウェブで閲覧しやすい形式に変換したものです。

最終更新日:2021-10-25